sensor_id;sensor_type;location;lat;lon;timestamp;temperature;humidity
43225;DHT22;28834;48.720;9.208;2022-07-04T00:00:00;20.50;99.90
43225;DHT22;28834;48.720;9.208;2022-07-04T00:02:26;20.40;99.90
43225;DHT22;28834;48.720;9.208;2022-07-04T00:04:51;20.40;99.90
43225;DHT22;28834;48.720;9.208;2022-07-04T00:07:17;20.30;99.90
43225;DHT22;28834;48.720;9.208;2022-07-04T00:09:42;20.30;99.90
43225;DHT22;28834;48.720;9.208;2022-07-04T00:12:08;20.20;99.90
43225;DHT22;28834;48.720;9.208;2022-07-04T00:14:34;20.20;99.90
43225;DHT22;28834;48.720;9.208;2022-07-04T00:17:00;20.20;99.90
43225;DHT22;28834;48.720;9.208;2022-07-04T00:19:25;20.10;99.90
43225;DHT22;28834;48.720;9.208;2022-07-04T00:21:51;20.10;99.90
43225;DHT22;28834;48.720;9.208;2022-07-04T00:24:17;20.10;99.90
43225;DHT22;28834;48.720;9.208;2022-07-04T00:26:43;20.10;99.90
43225;DHT22;28834;48.720;9.208;2022-07-04T00:29:08;20.00;99.90
43225;DHT22;28834;48.720;9.208;2022-07-04T00:31:34;20.00;99.90
43225;DHT22;28834;48.720;9.208;2022-07-04T00:34:00;20.10;99.90
43225;DHT22;28834;48.720;9.208;2022-07-04T00:36:26;20.00;99.90
43225;DHT22;28834;48.720;9.208;2022-07-04T00:38:52;19.90;99.90
43225;DHT22;28834;48.720;9.208;2022-07-04T00:41:17;20.00;99.90
43225;DHT22;28834;48.720;9.208;2022-07-04T00:43:43;19.90;99.90
43225;DHT22;28834;48.720;9.208;2022-07-04T00:46:09;19.90;99.90
43225;DHT22;28834;48.720;9.208;2022-07-04T00:48:34;19.90;99.90
43225;DHT22;28834;48.720;9.208;2022-07-04T00:51:00;19.90;99.90
43225;DHT22;28834;48.720;9.208;2022-07-04T00:53:26;19.90;99.90
43225;DHT22;28834;48.720;9.208;2022-07-04T00:55:52;19.90;99.90
43225;DHT22;28834;48.720;9.208;2022-07-04T00:58:22;19.90;99.90
43225;DHT22;28834;48.720;9.208;2022-07-04T01:00:49;19.80;99.90
43225;DHT22;28834;48.720;9.208;2022-07-04T01:03:15;19.80;99.90
43225;DHT22;28834;48.720;9.208;2022-07-04T01:05:42;19.80;99.90
43225;DHT22;28834;48.720;9.208;2022-07-04T01:08:08;19.80;99.90
43225;DHT22;28834;48.720;9.208;2022-07-04T01:10:33;19.70;99.90
43225;DHT22;28834;48.720;9.208;2022-07-04T01:12:59;19.70;99.90
43225;DHT22;28834;48.720;9.208;2022-07-04T01:15:25;19.70;99.90
43225;DHT22;28834;48.720;9.208;2022-07-04T01:17:50;19.80;99.90
43225;DHT22;28834;48.720;9.208;2022-07-04T01:20:16;19.80;99.90
43225;DHT22;28834;48.720;9.208;2022-07-04T01:22:42;19.80;99.90
43225;DHT22;28834;48.720;9.208;2022-07-04T01:25:08;19.70;99.90
43225;DHT22;28834;48.720;9.208;2022-07-04T01:27:34;19.70;99.90
43225;DHT22;28834;48.720;9.208;2022-07-04T01:30:00;19.70;99.90
43225;DHT22;28834;48.720;9.208;2022-07-04T01:32:26;19.70;99.90
43225;DHT22;28834;48.720;9.208;2022-07-04T01:34:52;19.70;99.90
43225;DHT22;28834;48.720;9.208;2022-07-04T01:37:17;19.60;99.90
43225;DHT22;28834;48.720;9.208;2022-07-04T01:39:43;19.60;99.90
43225;DHT22;28834;48.720;9.208;2022-07-04T01:42:09;19.60;99.90
43225;DHT22;28834;48.720;9.208;2022-07-04T01:44:35;19.50;99.90
43225;DHT22;28834;48.720;9.208;2022-07-04T01:47:01;19.50;99.90
43225;DHT22;28834;48.720;9.208;2022-07-04T01:49:27;19.40;99.90
43225;DHT22;28834;48.720;9.208;2022-07-04T01:51:53;19.50;99.90
43225;DHT22;28834;48.720;9.208;2022-07-04T01:54:19;19.40;99.90
43225;DHT22;28834;48.720;9.208;2022-07-04T01:56:45;19.40;99.90
43225;DHT22;28834;48.720;9.208;2022-07-04T01:59:11;19.40;99.90
43225;DHT22;28834;48.720;9.208;2022-07-04T02:01:37;19.40;99.90
43225;DHT22;28834;48.720;9.208;2022-07-04T02:04:04;19.30;99.90
43225;DHT22;28834;48.720;9.208;2022-07-04T02:06:30;19.30;99.90
43225;DHT22;28834;48.720;9.208;2022-07-04T02:08:57;19.20;99.90
43225;DHT22;28834;48.720;9.208;2022-07-04T02:11:41;19.20;99.90
43225;DHT22;28834;48.720;9.208;2022-07-04T02:14:25;19.20;99.90
43225;DHT22;28834;48.720;9.208;2022-07-04T02:16:50;19.10;99.90
43225;DHT22;28834;48.720;9.208;2022-07-04T02:19:16;19.10;99.90
43225;DHT22;28834;48.720;9.208;2022-07-04T02:21:42;19.10;99.90
43225;DHT22;28834;48.720;9.208;2022-07-04T02:24:07;19.10;99.90
43225;DHT22;28834;48.720;9.208;2022-07-04T02:26:33;19.10;99.90
43225;DHT22;28834;48.720;9.208;2022-07-04T02:28:58;19.10;99.90
43225;DHT22;28834;48.720;9.208;2022-07-04T02:31:25;19.00;99.90
43225;DHT22;28834;48.720;9.208;2022-07-04T02:33:51;19.00;99.90
43225;DHT22;28834;48.720;9.208;2022-07-04T02:36:16;18.90;99.90
43225;DHT22;28834;48.720;9.208;2022-07-04T02:38:42;18.90;99.90
43225;DHT22;28834;48.720;9.208;2022-07-04T02:41:07;18.80;99.90
43225;DHT22;28834;48.720;9.208;2022-07-04T02:43:33;18.80;99.90
43225;DHT22;28834;48.720;9.208;2022-07-04T02:45:59;18.80;99.90
43225;DHT22;28834;48.720;9.208;2022-07-04T02:48:24;18.70;99.90
43225;DHT22;28834;48.720;9.208;2022-07-04T02:50:50;18.70;99.90
43225;DHT22;28834;48.720;9.208;2022-07-04T02:53:15;18.70;99.90
43225;DHT22;28834;48.720;9.208;2022-07-04T02:55:41;18.70;99.90
43225;DHT22;28834;48.720;9.208;2022-07-04T02:58:06;18.60;99.90
43225;DHT22;28834;48.720;9.208;2022-07-04T03:00:32;18.60;99.90
43225;DHT22;28834;48.720;9.208;2022-07-04T03:02:58;18.50;99.90
43225;DHT22;28834;48.720;9.208;2022-07-04T03:05:23;18.40;99.90
43225;DHT22;28834;48.720;9.208;2022-07-04T03:07:49;18.40;99.90
43225;DHT22;28834;48.720;9.208;2022-07-04T03:10:14;18.30;99.90
43225;DHT22;28834;48.720;9.208;2022-07-04T03:12:40;18.30;99.90
43225;DHT22;28834;48.720;9.208;2022-07-04T03:15:06;18.30;99.90
43225;DHT22;28834;48.720;9.208;2022-07-04T03:17:31;18.10;99.90
43225;DHT22;28834;48.720;9.208;2022-07-04T03:19:57;18.10;99.90
43225;DHT22;28834;48.720;9.208;2022-07-04T03:22:23;18.00;99.90
43225;DHT22;28834;48.720;9.208;2022-07-04T03:24:48;18.00;99.90
43225;DHT22;28834;48.720;9.208;2022-07-04T03:27:14;18.00;99.90
43225;DHT22;28834;48.720;9.208;2022-07-04T03:29:40;18.00;99.90
43225;DHT22;28834;48.720;9.208;2022-07-04T03:32:05;18.00;99.90
43225;DHT22;28834;48.720;9.208;2022-07-04T03:34:31;17.90;99.90
43225;DHT22;28834;48.720;9.208;2022-07-04T03:36:57;17.90;99.90
43225;DHT22;28834;48.720;9.208;2022-07-04T03:39:23;17.90;99.90
43225;DHT22;28834;48.720;9.208;2022-07-04T03:41:48;17.90;99.90
43225;DHT22;28834;48.720;9.208;2022-07-04T03:44:14;17.80;99.90
43225;DHT22;28834;48.720;9.208;2022-07-04T03:46:40;17.80;99.90
43225;DHT22;28834;48.720;9.208;2022-07-04T03:49:06;17.70;99.90
43225;DHT22;28834;48.720;9.208;2022-07-04T03:51:31;17.70;99.90
43225;DHT22;28834;48.720;9.208;2022-07-04T03:53:57;17.60;99.90
43225;DHT22;28834;48.720;9.208;2022-07-04T03:56:23;17.60;99.90
43225;DHT22;28834;48.720;9.208;2022-07-04T03:58:49;17.50;99.90
43225;DHT22;28834;48.720;9.208;2022-07-04T04:01:16;17.50;99.90
43225;DHT22;28834;48.720;9.208;2022-07-04T04:03:42;17.50;99.90
43225;DHT22;28834;48.720;9.208;2022-07-04T04:06:26;17.50;99.90
43225;DHT22;28834;48.720;9.208;2022-07-04T04:08:52;17.60;99.90
43225;DHT22;28834;48.720;9.208;2022-07-04T04:11:17;17.60;99.90
43225;DHT22;28834;48.720;9.208;2022-07-04T04:13:43;17.50;99.90
43225;DHT22;28834;48.720;9.208;2022-07-04T04:16:09;17.50;99.90
43225;DHT22;28834;48.720;9.208;2022-07-04T04:18:35;17.50;99.90
43225;DHT22;28834;48.720;9.208;2022-07-04T04:21:00;17.60;99.90
43225;DHT22;28834;48.720;9.208;2022-07-04T04:23:26;17.60;99.90
43225;DHT22;28834;48.720;9.208;2022-07-04T04:25:52;17.70;99.90
43225;DHT22;28834;48.720;9.208;2022-07-04T04:28:17;17.70;99.90
43225;DHT22;28834;48.720;9.208;2022-07-04T04:30:43;17.70;99.90
43225;DHT22;28834;48.720;9.208;2022-07-04T04:33:08;17.70;99.90
43225;DHT22;28834;48.720;9.208;2022-07-04T04:35:34;17.80;99.90
43225;DHT22;28834;48.720;9.208;2022-07-04T04:37:59;17.80;99.90
43225;DHT22;28834;48.720;9.208;2022-07-04T04:40:25;17.70;99.90
43225;DHT22;28834;48.720;9.208;2022-07-04T04:42:50;17.80;99.90
43225;DHT22;28834;48.720;9.208;2022-07-04T04:45:16;17.70;99.90
43225;DHT22;28834;48.720;9.208;2022-07-04T04:47:42;17.70;99.90
43225;DHT22;28834;48.720;9.208;2022-07-04T04:50:09;17.70;99.90
43225;DHT22;28834;48.720;9.208;2022-07-04T04:52:37;17.70;99.90
43225;DHT22;28834;48.720;9.208;2022-07-04T04:55:03;17.80;99.90
43225;DHT22;28834;48.720;9.208;2022-07-04T04:57:29;17.80;99.90
43225;DHT22;28834;48.720;9.208;2022-07-04T04:59:54;17.80;99.90
43225;DHT22;28834;48.720;9.208;2022-07-04T05:02:20;17.70;99.90
43225;DHT22;28834;48.720;9.208;2022-07-04T05:04:46;17.70;99.90
43225;DHT22;28834;48.720;9.208;2022-07-04T05:07:11;17.80;99.90
43225;DHT22;28834;48.720;9.208;2022-07-04T05:09:37;17.80;99.90
43225;DHT22;28834;48.720;9.208;2022-07-04T05:12:03;17.80;99.90
43225;DHT22;28834;48.720;9.208;2022-07-04T05:14:28;17.80;99.90
43225;DHT22;28834;48.720;9.208;2022-07-04T05:16:54;17.80;99.90
43225;DHT22;28834;48.720;9.208;2022-07-04T05:19:20;17.80;99.90
43225;DHT22;28834;48.720;9.208;2022-07-04T05:21:45;17.80;99.90
43225;DHT22;28834;48.720;9.208;2022-07-04T05:24:11;17.80;99.90
43225;DHT22;28834;48.720;9.208;2022-07-04T05:26:37;17.70;99.90
43225;DHT22;28834;48.720;9.208;2022-07-04T05:29:02;17.70;99.90
43225;DHT22;28834;48.720;9.208;2022-07-04T05:31:28;17.70;99.90
43225;DHT22;28834;48.720;9.208;2022-07-04T05:33:54;17.80;99.90
43225;DHT22;28834;48.720;9.208;2022-07-04T05:36:20;17.70;99.90
43225;DHT22;28834;48.720;9.208;2022-07-04T05:38:46;17.70;99.90
43225;DHT22;28834;48.720;9.208;2022-07-04T05:41:11;17.70;99.90
43225;DHT22;28834;48.720;9.208;2022-07-04T05:43:37;17.70;99.90
43225;DHT22;28834;48.720;9.208;2022-07-04T05:46:02;17.70;99.90
43225;DHT22;28834;48.720;9.208;2022-07-04T05:48:29;17.80;99.90
43225;DHT22;28834;48.720;9.208;2022-07-04T05:50:54;18.00;99.90
43225;DHT22;28834;48.720;9.208;2022-07-04T05:53:20;18.00;99.90
43225;DHT22;28834;48.720;9.208;2022-07-04T05:55:45;18.10;99.90
43225;DHT22;28834;48.720;9.208;2022-07-04T05:58:11;18.20;99.90
43225;DHT22;28834;48.720;9.208;2022-07-04T06:00:37;18.30;99.90
43225;DHT22;28834;48.720;9.208;2022-07-04T06:03:07;18.40;99.90
43225;DHT22;28834;48.720;9.208;2022-07-04T06:05:33;18.40;99.90
43225;DHT22;28834;48.720;9.208;2022-07-04T06:07:59;18.50;99.90
43225;DHT22;28834;48.720;9.208;2022-07-04T06:10:25;18.50;99.90
43225;DHT22;28834;48.720;9.208;2022-07-04T06:12:50;18.60;99.90
43225;DHT22;28834;48.720;9.208;2022-07-04T06:15:16;18.60;99.90
43225;DHT22;28834;48.720;9.208;2022-07-04T06:17:42;18.60;99.90
43225;DHT22;28834;48.720;9.208;2022-07-04T06:20:08;18.60;99.90
43225;DHT22;28834;48.720;9.208;2022-07-04T06:22:41;18.60;99.90
43225;DHT22;28834;48.720;9.208;2022-07-04T06:25:10;18.60;99.90
43225;DHT22;28834;48.720;9.208;2022-07-04T06:27:36;18.70;99.90
43225;DHT22;28834;48.720;9.208;2022-07-04T06:30:02;18.70;99.90
43225;DHT22;28834;48.720;9.208;2022-07-04T06:32:27;18.80;99.90
43225;DHT22;28834;48.720;9.208;2022-07-04T06:34:53;18.80;99.90
43225;DHT22;28834;48.720;9.208;2022-07-04T06:37:37;18.90;99.90
43225;DHT22;28834;48.720;9.208;2022-07-04T06:40:03;18.90;99.90
43225;DHT22;28834;48.720;9.208;2022-07-04T06:42:29;19.00;99.90
43225;DHT22;28834;48.720;9.208;2022-07-04T06:44:54;19.00;99.90
43225;DHT22;28834;48.720;9.208;2022-07-04T06:47:19;19.10;99.90
43225;DHT22;28834;48.720;9.208;2022-07-04T06:49:45;19.20;99.90
43225;DHT22;28834;48.720;9.208;2022-07-04T06:52:10;19.30;99.90
43225;DHT22;28834;48.720;9.208;2022-07-04T06:54:36;19.30;99.90
43225;DHT22;28834;48.720;9.208;2022-07-04T06:57:02;19.30;99.90
43225;DHT22;28834;48.720;9.208;2022-07-04T06:59:27;19.30;99.90
43225;DHT22;28834;48.720;9.208;2022-07-04T07:01:53;19.40;99.90
43225;DHT22;28834;48.720;9.208;2022-07-04T07:04:18;19.40;99.90
43225;DHT22;28834;48.720;9.208;2022-07-04T07:06:44;19.50;99.90
43225;DHT22;28834;48.720;9.208;2022-07-04T07:09:09;19.50;99.90
43225;DHT22;28834;48.720;9.208;2022-07-04T07:11:35;19.50;99.90
43225;DHT22;28834;48.720;9.208;2022-07-04T07:14:00;19.60;99.90
43225;DHT22;28834;48.720;9.208;2022-07-04T07:16:26;19.70;99.90
43225;DHT22;28834;48.720;9.208;2022-07-04T07:18:51;19.70;99.90
43225;DHT22;28834;48.720;9.208;2022-07-04T07:21:17;19.90;99.90
43225;DHT22;28834;48.720;9.208;2022-07-04T07:23:43;20.00;99.90
43225;DHT22;28834;48.720;9.208;2022-07-04T07:26:10;20.00;99.90
43225;DHT22;28834;48.720;9.208;2022-07-04T07:28:36;20.10;99.90
43225;DHT22;28834;48.720;9.208;2022-07-04T07:31:02;20.30;99.90
43225;DHT22;28834;48.720;9.208;2022-07-04T07:33:28;20.30;99.90
43225;DHT22;28834;48.720;9.208;2022-07-04T07:35:53;20.30;99.90
43225;DHT22;28834;48.720;9.208;2022-07-04T07:38:19;20.30;99.90
43225;DHT22;28834;48.720;9.208;2022-07-04T07:40:44;20.30;99.90
43225;DHT22;28834;48.720;9.208;2022-07-04T07:43:10;20.30;99.90
43225;DHT22;28834;48.720;9.208;2022-07-04T07:45:35;20.40;99.90
43225;DHT22;28834;48.720;9.208;2022-07-04T07:48:02;20.50;99.90
43225;DHT22;28834;48.720;9.208;2022-07-04T07:50:27;20.40;99.90
43225;DHT22;28834;48.720;9.208;2022-07-04T07:52:53;20.40;99.90
43225;DHT22;28834;48.720;9.208;2022-07-04T07:55:18;20.40;99.90
43225;DHT22;28834;48.720;9.208;2022-07-04T07:57:44;20.50;99.90
43225;DHT22;28834;48.720;9.208;2022-07-04T08:00:10;20.50;99.90
43225;DHT22;28834;48.720;9.208;2022-07-04T08:02:37;20.60;99.90
43225;DHT22;28834;48.720;9.208;2022-07-04T08:05:21;20.60;99.90
43225;DHT22;28834;48.720;9.208;2022-07-04T08:07:47;20.60;99.90
43225;DHT22;28834;48.720;9.208;2022-07-04T08:10:12;20.60;99.90
43225;DHT22;28834;48.720;9.208;2022-07-04T08:12:38;20.60;99.90
43225;DHT22;28834;48.720;9.208;2022-07-04T08:15:04;20.60;99.90
43225;DHT22;28834;48.720;9.208;2022-07-04T08:17:29;20.60;99.90
43225;DHT22;28834;48.720;9.208;2022-07-04T08:19:55;20.50;99.90
43225;DHT22;28834;48.720;9.208;2022-07-04T08:22:21;20.50;99.90
43225;DHT22;28834;48.720;9.208;2022-07-04T08:24:47;20.50;99.90
43225;DHT22;28834;48.720;9.208;2022-07-04T08:27:13;20.50;99.90
43225;DHT22;28834;48.720;9.208;2022-07-04T08:29:39;20.50;99.90
43225;DHT22;28834;48.720;9.208;2022-07-04T08:32:05;20.40;99.90
43225;DHT22;28834;48.720;9.208;2022-07-04T08:34:33;20.40;99.90
43225;DHT22;28834;48.720;9.208;2022-07-04T08:36:58;20.40;99.90
43225;DHT22;28834;48.720;9.208;2022-07-04T08:39:24;20.40;99.90
43225;DHT22;28834;48.720;9.208;2022-07-04T08:41:52;20.40;99.90
43225;DHT22;28834;48.720;9.208;2022-07-04T08:44:22;20.40;99.90
43225;DHT22;28834;48.720;9.208;2022-07-04T08:46:51;20.30;99.90
43225;DHT22;28834;48.720;9.208;2022-07-04T08:49:21;20.40;99.90
43225;DHT22;28834;48.720;9.208;2022-07-04T08:51:52;20.40;99.90
43225;DHT22;28834;48.720;9.208;2022-07-04T08:54:24;20.50;99.90
43225;DHT22;28834;48.720;9.208;2022-07-04T08:57:17;20.50;99.90
43225;DHT22;28834;48.720;9.208;2022-07-04T09:00:03;20.60;99.90
43225;DHT22;28834;48.720;9.208;2022-07-04T09:02:29;20.70;99.90
43225;DHT22;28834;48.720;9.208;2022-07-04T09:04:55;20.70;99.90
43225;DHT22;28834;48.720;9.208;2022-07-04T09:07:21;20.90;99.90
43225;DHT22;28834;48.720;9.208;2022-07-04T09:09:48;20.90;99.90
43225;DHT22;28834;48.720;9.208;2022-07-04T09:12:14;20.90;99.90
43225;DHT22;28834;48.720;9.208;2022-07-04T09:14:40;21.00;99.90
43225;DHT22;28834;48.720;9.208;2022-07-04T09:17:06;21.10;99.90
43225;DHT22;28834;48.720;9.208;2022-07-04T09:19:32;21.10;99.90
43225;DHT22;28834;48.720;9.208;2022-07-04T09:22:08;21.20;99.90
43225;DHT22;28834;48.720;9.208;2022-07-04T09:24:56;21.30;99.90
43225;DHT22;28834;48.720;9.208;2022-07-04T09:27:36;21.60;99.90
43225;DHT22;28834;48.720;9.208;2022-07-04T09:30:03;21.60;99.90
43225;DHT22;28834;48.720;9.208;2022-07-04T09:32:50;21.90;99.90
43225;DHT22;28834;48.720;9.208;2022-07-04T09:35:19;22.20;99.90
43225;DHT22;28834;48.720;9.208;2022-07-04T09:37:57;22.50;99.90
43225;DHT22;28834;48.720;9.208;2022-07-04T09:40:35;22.60;99.90
43225;DHT22;28834;48.720;9.208;2022-07-04T09:43:20;22.90;99.90
43225;DHT22;28834;48.720;9.208;2022-07-04T09:45:55;23.00;97.80
43225;DHT22;28834;48.720;9.208;2022-07-04T09:48:21;23.10;98.30
43225;DHT22;28834;48.720;9.208;2022-07-04T09:50:46;23.40;99.40
43225;DHT22;28834;48.720;9.208;2022-07-04T09:53:12;23.50;97.40
43225;DHT22;28834;48.720;9.208;2022-07-04T09:55:38;23.90;98.80
43225;DHT22;28834;48.720;9.208;2022-07-04T09:58:10;24.20;96.90
43225;DHT22;28834;48.720;9.208;2022-07-04T10:00:40;24.20;97.50
43225;DHT22;28834;48.720;9.208;2022-07-04T10:05:44;24.20;97.30
43225;DHT22;28834;48.720;9.208;2022-07-04T10:08:10;24.40;96.10
43225;DHT22;28834;48.720;9.208;2022-07-04T10:10:37;24.50;95.90
43225;DHT22;28834;48.720;9.208;2022-07-04T10:13:07;24.60;96.40
43225;DHT22;28834;48.720;9.208;2022-07-04T10:15:35;24.60;94.20
43225;DHT22;28834;48.720;9.208;2022-07-04T10:18:03;24.50;92.50
43225;DHT22;28834;48.720;9.208;2022-07-04T10:20:29;24.60;94.20
43225;DHT22;28834;48.720;9.208;2022-07-04T10:22:55;24.80;94.20
43225;DHT22;28834;48.720;9.208;2022-07-04T10:25:20;24.80;94.90
43225;DHT22;28834;48.720;9.208;2022-07-04T10:27:46;24.80;92.90
43225;DHT22;28834;48.720;9.208;2022-07-04T10:30:15;25.00;93.50
43225;DHT22;28834;48.720;9.208;2022-07-04T10:32:44;25.00;91.20
43225;DHT22;28834;48.720;9.208;2022-07-04T10:35:15;25.00;92.00
43225;DHT22;28834;48.720;9.208;2022-07-04T10:38:03;25.00;89.50
43225;DHT22;28834;48.720;9.208;2022-07-04T10:40:47;25.20;91.10
43225;DHT22;28834;48.720;9.208;2022-07-04T10:48:27;25.70;92.10
43225;DHT22;28834;48.720;9.208;2022-07-04T10:51:02;25.90;90.30
43225;DHT22;28834;48.720;9.208;2022-07-04T10:53:29;25.70;87.50
43225;DHT22;28834;48.720;9.208;2022-07-04T10:58:42;25.80;89.50
43225;DHT22;28834;48.720;9.208;2022-07-04T11:01:12;25.90;87.80
43225;DHT22;28834;48.720;9.208;2022-07-04T11:03:51;26.00;90.30
43225;DHT22;28834;48.720;9.208;2022-07-04T11:09:19;26.20;88.00
43225;DHT22;28834;48.720;9.208;2022-07-04T11:14:37;26.50;89.40
43225;DHT22;28834;48.720;9.208;2022-07-04T11:17:05;26.70;82.90
43225;DHT22;28834;48.720;9.208;2022-07-04T11:19:31;26.60;85.00
43225;DHT22;28834;48.720;9.208;2022-07-04T11:21:57;26.70;84.80
43225;DHT22;28834;48.720;9.208;2022-07-04T11:24:23;26.60;83.90
43225;DHT22;28834;48.720;9.208;2022-07-04T11:26:49;26.80;86.80
43225;DHT22;28834;48.720;9.208;2022-07-04T11:29:15;27.00;85.30
43225;DHT22;28834;48.720;9.208;2022-07-04T11:31:44;27.30;87.70
43225;DHT22;28834;48.720;9.208;2022-07-04T11:34:10;27.40;85.60
43225;DHT22;28834;48.720;9.208;2022-07-04T11:36:37;27.40;85.60
43225;DHT22;28834;48.720;9.208;2022-07-04T11:39:05;27.40;85.50
43225;DHT22;28834;48.720;9.208;2022-07-04T11:41:33;27.30;84.70
43225;DHT22;28834;48.720;9.208;2022-07-04T11:44:23;27.20;82.20
43225;DHT22;28834;48.720;9.208;2022-07-04T11:47:10;27.10;87.40
43225;DHT22;28834;48.720;9.208;2022-07-04T11:49:40;26.90;86.90
43225;DHT22;28834;48.720;9.208;2022-07-04T11:52:06;26.90;84.50
43225;DHT22;28834;48.720;9.208;2022-07-04T11:54:33;26.90;86.00
43225;DHT22;28834;48.720;9.208;2022-07-04T11:57:22;26.70;83.90
43225;DHT22;28834;48.720;9.208;2022-07-04T12:02:21;26.40;89.00
43225;DHT22;28834;48.720;9.208;2022-07-04T12:04:47;26.50;90.00
43225;DHT22;28834;48.720;9.208;2022-07-04T12:07:18;26.60;86.30
43225;DHT22;28834;48.720;9.208;2022-07-04T12:09:45;26.60;85.20
43225;DHT22;28834;48.720;9.208;2022-07-04T12:12:11;26.60;82.10
43225;DHT22;28834;48.720;9.208;2022-07-04T12:14:37;26.40;84.10
43225;DHT22;28834;48.720;9.208;2022-07-04T12:17:19;26.40;87.20
43225;DHT22;28834;48.720;9.208;2022-07-04T12:19:55;26.40;87.80
43225;DHT22;28834;48.720;9.208;2022-07-04T12:22:36;26.50;87.50
43225;DHT22;28834;48.720;9.208;2022-07-04T12:25:05;26.60;85.90
43225;DHT22;28834;48.720;9.208;2022-07-04T12:27:31;26.50;87.90
43225;DHT22;28834;48.720;9.208;2022-07-04T12:29:58;26.60;81.50
43225;DHT22;28834;48.720;9.208;2022-07-04T12:32:24;26.70;87.20
43225;DHT22;28834;48.720;9.208;2022-07-04T12:35:08;26.80;88.80
43225;DHT22;28834;48.720;9.208;2022-07-04T12:37:33;26.90;86.40
43225;DHT22;28834;48.720;9.208;2022-07-04T12:40:06;26.90;86.60
43225;DHT22;28834;48.720;9.208;2022-07-04T12:42:32;27.00;86.60
43225;DHT22;28834;48.720;9.208;2022-07-04T12:45:05;27.10;83.30
43225;DHT22;28834;48.720;9.208;2022-07-04T12:47:34;27.30;89.80
43225;DHT22;28834;48.720;9.208;2022-07-04T12:50:00;27.40;88.60
43225;DHT22;28834;48.720;9.208;2022-07-04T12:52:27;27.60;87.20
43225;DHT22;28834;48.720;9.208;2022-07-04T12:55:04;27.50;88.30
43225;DHT22;28834;48.720;9.208;2022-07-04T12:57:30;27.20;82.90
43225;DHT22;28834;48.720;9.208;2022-07-04T12:59:56;27.30;86.30
43225;DHT22;28834;48.720;9.208;2022-07-04T13:02:21;27.30;83.10
43225;DHT22;28834;48.720;9.208;2022-07-04T13:04:47;27.30;87.70
43225;DHT22;28834;48.720;9.208;2022-07-04T13:07:14;27.40;88.70
43225;DHT22;28834;48.720;9.208;2022-07-04T13:09:42;27.60;87.30
43225;DHT22;28834;48.720;9.208;2022-07-04T13:12:08;27.80;87.20
43225;DHT22;28834;48.720;9.208;2022-07-04T13:14:57;27.50;86.30
43225;DHT22;28834;48.720;9.208;2022-07-04T13:17:24;27.50;86.00
43225;DHT22;28834;48.720;9.208;2022-07-04T13:19:51;27.80;86.90
43225;DHT22;28834;48.720;9.208;2022-07-04T13:22:18;27.80;84.00
43225;DHT22;28834;48.720;9.208;2022-07-04T13:24:44;27.70;83.10
43225;DHT22;28834;48.720;9.208;2022-07-04T13:27:10;27.50;81.70
43225;DHT22;28834;48.720;9.208;2022-07-04T13:29:36;27.00;82.10
43225;DHT22;28834;48.720;9.208;2022-07-04T13:32:04;26.90;80.30
43225;DHT22;28834;48.720;9.208;2022-07-04T13:34:30;27.00;86.10
43225;DHT22;28834;48.720;9.208;2022-07-04T13:36:56;27.20;85.10
43225;DHT22;28834;48.720;9.208;2022-07-04T13:39:22;27.20;84.80
43225;DHT22;28834;48.720;9.208;2022-07-04T13:41:48;27.40;81.80
43225;DHT22;28834;48.720;9.208;2022-07-04T13:44:14;27.50;85.90
43225;DHT22;28834;48.720;9.208;2022-07-04T13:46:42;27.50;86.00
43225;DHT22;28834;48.720;9.208;2022-07-04T13:49:07;27.50;85.20
43225;DHT22;28834;48.720;9.208;2022-07-04T13:51:33;27.70;84.10
43225;DHT22;28834;48.720;9.208;2022-07-04T13:53:58;27.60;83.90
43225;DHT22;28834;48.720;9.208;2022-07-04T13:56:24;27.20;83.80
43225;DHT22;28834;48.720;9.208;2022-07-04T13:58:51;26.90;86.60
43225;DHT22;28834;48.720;9.208;2022-07-04T14:01:16;26.70;87.60
43225;DHT22;28834;48.720;9.208;2022-07-04T14:03:44;26.80;89.70
43225;DHT22;28834;48.720;9.208;2022-07-04T14:06:10;27.00;86.00
43225;DHT22;28834;48.720;9.208;2022-07-04T14:08:36;27.10;88.00
43225;DHT22;28834;48.720;9.208;2022-07-04T14:11:01;27.00;80.20
43225;DHT22;28834;48.720;9.208;2022-07-04T14:13:28;26.80;81.70
43225;DHT22;28834;48.720;9.208;2022-07-04T14:15:53;26.50;79.70
43225;DHT22;28834;48.720;9.208;2022-07-04T14:18:19;26.20;79.90
43225;DHT22;28834;48.720;9.208;2022-07-04T14:20:45;25.70;86.40
43225;DHT22;28834;48.720;9.208;2022-07-04T14:23:11;25.50;88.80
43225;DHT22;28834;48.720;9.208;2022-07-04T14:25:37;25.40;88.80
43225;DHT22;28834;48.720;9.208;2022-07-04T14:28:03;25.20;90.10
43225;DHT22;28834;48.720;9.208;2022-07-04T14:30:29;25.10;88.90
43225;DHT22;28834;48.720;9.208;2022-07-04T14:32:55;24.70;88.10
43225;DHT22;28834;48.720;9.208;2022-07-04T14:35:21;24.60;91.20
43225;DHT22;28834;48.720;9.208;2022-07-04T14:37:46;24.50;91.50
43225;DHT22;28834;48.720;9.208;2022-07-04T14:40:14;24.50;91.50
43225;DHT22;28834;48.720;9.208;2022-07-04T14:42:40;24.40;90.70
43225;DHT22;28834;48.720;9.208;2022-07-04T14:45:06;24.40;91.70
43225;DHT22;28834;48.720;9.208;2022-07-04T14:47:32;24.30;91.90
43225;DHT22;28834;48.720;9.208;2022-07-04T14:50:00;24.30;91.00
43225;DHT22;28834;48.720;9.208;2022-07-04T14:52:26;24.10;92.60
43225;DHT22;28834;48.720;9.208;2022-07-04T14:54:52;24.00;93.10
43225;DHT22;28834;48.720;9.208;2022-07-04T14:57:18;23.90;93.50
43225;DHT22;28834;48.720;9.208;2022-07-04T14:59:43;23.90;92.80
43225;DHT22;28834;48.720;9.208;2022-07-04T15:02:09;24.10;93.80
43225;DHT22;28834;48.720;9.208;2022-07-04T15:04:34;24.40;94.90
43225;DHT22;28834;48.720;9.208;2022-07-04T15:07:00;24.90;92.30
43225;DHT22;28834;48.720;9.208;2022-07-04T15:09:25;25.40;91.70
43225;DHT22;28834;48.720;9.208;2022-07-04T15:11:51;25.70;90.70
43225;DHT22;28834;48.720;9.208;2022-07-04T15:14:17;25.60;88.60
43225;DHT22;28834;48.720;9.208;2022-07-04T15:16:43;25.50;90.20
43225;DHT22;28834;48.720;9.208;2022-07-04T15:19:09;25.30;89.00
43225;DHT22;28834;48.720;9.208;2022-07-04T15:21:34;25.20;91.30
43225;DHT22;28834;48.720;9.208;2022-07-04T15:24:18;25.20;90.70
43225;DHT22;28834;48.720;9.208;2022-07-04T15:26:46;25.00;90.20
43225;DHT22;28834;48.720;9.208;2022-07-04T15:29:15;24.80;91.90
43225;DHT22;28834;48.720;9.208;2022-07-04T15:31:42;24.70;93.10
43225;DHT22;28834;48.720;9.208;2022-07-04T15:34:08;24.60;92.60
43225;DHT22;28834;48.720;9.208;2022-07-04T15:36:34;24.50;92.80
43225;DHT22;28834;48.720;9.208;2022-07-04T15:39:04;24.40;90.20
43225;DHT22;28834;48.720;9.208;2022-07-04T15:41:30;24.30;94.10
43225;DHT22;28834;48.720;9.208;2022-07-04T15:43:56;24.10;94.10
43225;DHT22;28834;48.720;9.208;2022-07-04T15:46:21;24.10;92.90
43225;DHT22;28834;48.720;9.208;2022-07-04T15:48:47;24.30;93.50